Cayley, Canada
Current Conditions -  °F | °C
As of 6:00 AM on Saturday 22 Nov 2014 (Local Time) from CYYC Reporting Station
Broken Clouds Broken Clouds  
Wind Chill: 37°   Ceiling: 13000
Heat Index: 37°   Visibility: 15mi
Dew Point: 27°   Wind: 0mph
Humidity: 65%   Direction: NA
Pressure: 29.04"   Gusts: NA
Location:  50.45°N, 113.85°W
Report Text: CYYC 221300Z 00000KT 15SM BKN130 03/M03 A2904 RMK AC6 SLP861 DENSITY ALT 4000FT
Loading
Personal Weather Stations






























Interactive Weather Map New forecast layout! Learn more

10-Day Weather Forecast

Advertisements
Track Severe Weather on mobile